Skip Navigation LinksHome page > Weather > Current weather Skip Navigation Links

Current Weather

Ndjamena, Chad

For information only: do not use for flight planning or navigation.
Latest weather
Observation time Monday, December 22, 2014 1:00 AM WAT
Local time Monday, December 22, 2014 1:41 AM WAT
Flight conditions Low Instrument Meteorological Conditions
Winds
Wind direction North-Northeast (20°)
Wind speed 12 mph
Visibility 0.6 mi.
Present weather dust
Sky condition
Ceiling unlimited
Temperature 70°F
Dewpoint 45°F
Altimeter 29.97 in.Hg
Derived measurements
Relative humidity 40%
Density altitude 1083 ft.
Remarks
No significant changes expected in the next two hours.
METAR FTTJ 220000Z 02010KT 1000 R05/0700 DU NSC 21/07 Q1015 NOSIG

Settings

Location code

InnerDrive.Weather 4.0.5399.0 Release CLR 4.0.30319.34014
Copyright ©2014 Inner Drive Technology. All rights reserved. Portions Copyright ©1986-2014 David Braverman.

Find weather

Site navigation


Skip Navigation Links

Place info

Page info

PayPal - The safer, easier way to pay online!

Return home.

Copyright ©2014 Inner Drive Technology. Purveyors of fine, hand-crafted computer software. Page printed 2014-12-22T00:41:25 UTC.